Terminal Aerodrome Forecast
Issued by NWS Cleveland, OH

Home | Current Version | Previous Version | Graphics & Text | Print | Product List | Glossary On
Versions: 1 2 3 4 5 6 7 8 9 10 11 12 13 14 15 16 17 18 19
000
FTUS41 KCLE 171300 AAA
TAFYNG
TAF AMD
KYNG 171326Z 1713/1812 01007KT P6SM SCT015 OVC080
     FM171400 01007KT P6SM BKN015 OVC080
     FM171600 35004KT P6SM SCT014 BKN020 OVC060
     FM171900 35007KT P6SM BKN040
     FM180900 VRB03KT 5SM BR SCT080=

USA.gov is the U.S. government's official web portal to all federal, state and local government web resources and services.